createdAt,value
2023-04-25T00:01:38.566Z,14.10
2023-04-25T00:03:41.014Z,13.02
2023-04-25T00:05:42.824Z,10.02
2023-04-25T00:07:44.359Z,10.05
2023-04-25T00:09:45.823Z,12.60
2023-04-25T00:11:47.212Z,12.18
2023-04-25T00:13:49.468Z,9.82
2023-04-25T00:15:51.330Z,12.85
2023-04-25T00:17:53.967Z,10.25
2023-04-25T00:19:55.577Z,10.20
2023-04-25T00:21:57.088Z,10.30
2023-04-25T00:23:58.460Z,12.10
2023-04-25T00:25:59.891Z,12.50
2023-04-25T00:28:01.355Z,16.90
2023-04-25T00:30:03.595Z,9.75
2023-04-25T00:32:05.363Z,11.55
2023-04-25T00:34:07.655Z,12.55
2023-04-25T00:36:09.452Z,16.02
2023-04-25T00:38:10.820Z,14.38
2023-04-25T00:40:12.749Z,10.52
2023-04-25T00:42:14.761Z,12.40
2023-04-25T00:44:17.846Z,9.52
2023-04-25T00:46:19.290Z,15.05
2023-04-25T00:48:24.061Z,10.25
2023-04-25T00:50:25.626Z,18.73
2023-04-25T00:52:27.074Z,11.05
2023-04-25T00:54:28.725Z,12.43
2023-04-25T00:56:30.503Z,13.43
2023-04-25T00:58:31.980Z,11.02
2023-04-25T01:00:33.845Z,14.13
2023-04-25T01:02:36.719Z,18.15
2023-04-25T01:04:38.728Z,10.90
2023-04-25T01:06:41.430Z,12.55
2023-04-25T01:08:42.858Z,16.42
2023-04-25T01:10:44.320Z,11.88
2023-04-25T01:12:45.767Z,15.63
2023-04-25T01:14:47.881Z,15.93
2023-04-25T01:16:49.368Z,18.08
2023-04-25T01:18:52.189Z,13.20
2023-04-25T01:20:54.551Z,13.55
2023-04-25T01:22:56.461Z,12.82
2023-04-25T01:27:36.828Z,12.68
2023-04-25T01:29:38.498Z,12.68
2023-04-25T01:31:40.319Z,10.60
2023-04-25T01:33:41.817Z,13.10
2023-04-25T01:35:43.393Z,13.82
2023-04-25T01:37:45.950Z,15.63
2023-04-25T01:39:47.797Z,18.55
2023-04-25T01:41:50.076Z,13.10
2023-04-25T01:43:51.828Z,15.45
2023-04-25T01:45:53.590Z,17.25
2023-04-25T01:47:55.293Z,12.05
2023-04-25T01:49:56.978Z,12.70
2023-04-25T01:51:58.402Z,12.50
2023-04-25T01:54:01.074Z,12.10
2023-04-25T01:56:02.665Z,15.60
2023-04-25T01:58:04.668Z,16.33
2023-04-25T02:00:07.984Z,14.27
2023-04-25T02:02:09.407Z,16.25
2023-04-25T02:04:11.033Z,15.60
2023-04-25T02:06:12.648Z,12.93
2023-04-25T02:08:14.043Z,10.90
2023-04-25T02:10:15.968Z,13.40
2023-04-25T02:12:17.555Z,13.15
2023-04-25T02:14:19.011Z,16.20
2023-04-25T02:16:20.572Z,16.23
2023-04-25T02:18:22.321Z,15.68
2023-04-25T02:20:25.025Z,14.95
2023-04-25T02:22:27.803Z,13.75
2023-04-25T02:24:29.220Z,13.82
2023-04-25T02:26:31.227Z,16.88
2023-04-25T02:28:32.623Z,14.05
2023-04-25T02:30:34.087Z,17.77
2023-04-25T02:32:35.634Z,17.77
2023-04-25T02:34:37.533Z,16.83
2023-04-25T02:36:39.025Z,20.98
2023-04-25T02:38:40.724Z,15.32
2023-04-25T02:40:42.309Z,15.02
2023-04-25T02:42:43.791Z,17.55
2023-04-25T02:44:45.207Z,18.17
2023-04-25T02:46:46.694Z,15.80
2023-04-25T02:48:48.239Z,13.63
2023-04-25T02:50:49.728Z,19.77
2023-04-25T02:52:51.538Z,17.00
2023-04-25T02:54:52.979Z,19.83
2023-04-25T02:56:54.368Z,16.92
2023-04-25T02:58:56.018Z,16.67
2023-04-25T03:00:57.507Z,16.13
2023-04-25T03:02:59.118Z,15.98
2023-04-25T03:05:00.624Z,16.48
2023-04-25T03:07:02.073Z,24.38
2023-04-25T03:09:03.506Z,20.75
2023-04-25T03:11:04.984Z,20.95
2023-04-25T03:13:06.424Z,16.40
2023-04-25T03:15:08.441Z,21.90
2023-04-25T03:17:09.843Z,16.55
2023-04-25T03:19:11.316Z,18.13
2023-04-25T03:21:12.743Z,17.90
2023-04-25T03:23:14.153Z,18.05
2023-04-25T03:25:15.678Z,20.88
2023-04-25T03:27:18.100Z,23.50
2023-04-25T03:29:19.617Z,19.70
2023-04-25T03:31:21.563Z,20.67
2023-04-25T03:33:23.361Z,18.05
2023-04-25T03:35:25.935Z,17.23
2023-04-25T03:37:27.669Z,20.50
2023-04-25T03:39:29.053Z,18.17
2023-04-25T03:41:30.747Z,16.45
2023-04-25T03:43:32.226Z,16.10
2023-04-25T03:45:33.844Z,15.63
2023-04-25T03:47:35.344Z,14.93
2023-04-25T03:49:37.165Z,14.45
2023-04-25T03:51:38.976Z,18.65
2023-04-25T03:53:40.502Z,18.30
2023-04-25T03:55:43.524Z,15.60
2023-04-25T03:57:45.174Z,13.77
2023-04-25T03:59:46.602Z,14.40
2023-04-25T04:01:48.022Z,14.88
2023-04-25T04:03:49.754Z,15.10
2023-04-25T04:05:51.609Z,14.68
2023-04-25T04:07:53.148Z,18.75
2023-04-25T04:09:54.513Z,18.25
2023-04-25T04:11:56.009Z,15.25
2023-04-25T04:13:57.410Z,17.33
2023-04-25T04:15:58.998Z,15.95
2023-04-25T04:18:03.730Z,16.05
2023-04-25T04:20:06.913Z,12.27
2023-04-25T04:22:08.304Z,15.05
2023-04-25T04:24:09.826Z,15.35
2023-04-25T04:26:12.330Z,13.77
2023-04-25T04:28:14.148Z,12.38
2023-04-25T04:30:15.898Z,17.65
2023-04-25T04:32:18.240Z,19.17
2023-04-25T04:34:19.632Z,14.48
2023-04-25T04:36:22.782Z,12.93
2023-04-25T04:38:24.890Z,9.52
2023-04-25T04:40:26.552Z,8.73
2023-04-25T04:42:29.082Z,7.88
2023-04-25T04:44:33.604Z,8.77
2023-04-25T04:46:42.894Z,8.20
2023-04-25T04:48:45.468Z,9.07
2023-04-25T04:50:47.077Z,5.85
2023-04-25T04:52:48.519Z,5.57
2023-04-25T04:54:49.983Z,6.30
2023-04-25T04:56:52.144Z,4.38
2023-04-25T04:58:53.542Z,5.28
2023-04-25T05:00:54.997Z,11.00
2023-04-25T05:02:57.676Z,6.95
2023-04-25T05:04:59.298Z,6.68
2023-04-25T05:07:00.735Z,8.57
2023-04-25T05:09:02.152Z,5.47
2023-04-25T05:11:03.786Z,6.93
2023-04-25T05:13:05.199Z,7.75
2023-04-25T05:15:07.144Z,9.77
2023-04-25T05:17:09.491Z,8.40
2023-04-25T05:19:10.988Z,11.13
2023-04-25T05:21:12.389Z,7.57
2023-04-25T05:23:13.817Z,7.40
2023-04-25T05:25:15.227Z,5.63
2023-04-25T05:27:19.606Z,6.50
2023-04-25T05:29:21.008Z,3.70
2023-04-25T05:31:22.403Z,5.72
2023-04-25T05:33:23.828Z,7.00
2023-04-25T05:35:25.369Z,4.80
2023-04-25T05:37:26.853Z,7.25
2023-04-25T05:39:28.401Z,8.13
2023-04-25T05:41:29.801Z,6.55
2023-04-25T05:43:31.513Z,8.63
2023-04-25T05:45:32.893Z,7.70
2023-04-25T05:47:34.383Z,5.88
2023-04-25T05:49:35.925Z,10.27
2023-04-25T05:51:37.333Z,6.68
2023-04-25T05:53:38.777Z,8.07
2023-04-25T05:55:40.170Z,11.00
2023-04-25T05:57:42.464Z,8.68
2023-04-25T05:59:43.891Z,9.50
2023-04-25T06:01:45.561Z,7.25
2023-04-25T06:03:47.330Z,10.30
2023-04-25T06:05:48.960Z,10.45
2023-04-25T06:07:50.540Z,9.32
2023-04-25T06:09:52.035Z,13.60
2023-04-25T06:11:53.443Z,10.15
2023-04-25T06:13:55.213Z,12.32
2023-04-25T06:15:56.753Z,9.85
2023-04-25T06:17:58.258Z,7.28
2023-04-25T06:19:59.793Z,8.82
2023-04-25T06:22:01.449Z,12.85
2023-04-25T06:24:03.014Z,12.73
2023-04-25T06:26:04.670Z,9.20
2023-04-25T06:28:06.101Z,13.43
2023-04-25T06:30:08.149Z,9.13
2023-04-25T06:32:09.576Z,11.20
2023-04-25T06:34:11.136Z,14.27
2023-04-25T06:36:12.561Z,13.02
2023-04-25T06:38:14.058Z,12.45
2023-04-25T06:40:15.894Z,12.07
2023-04-25T06:42:17.330Z,15.52
2023-04-25T06:44:18.749Z,10.82
2023-04-25T06:46:20.402Z,13.82
2023-04-25T06:48:21.845Z,11.35
2023-04-25T06:50:23.306Z,15.75
2023-04-25T06:52:24.684Z,16.23
2023-04-25T06:54:28.085Z,16.15
2023-04-25T06:56:30.613Z,12.35
2023-04-25T06:58:32.016Z,11.25
2023-04-25T07:00:34.539Z,11.82
2023-04-25T07:02:36.725Z,9.80
2023-04-25T07:04:38.603Z,12.40
2023-04-25T07:06:43.521Z,12.32
2023-04-25T07:08:45.010Z,13.10
2023-04-25T07:10:49.663Z,15.88
2023-04-25T07:12:51.479Z,13.23
2023-04-25T07:14:52.911Z,9.38
2023-04-25T07:16:54.525Z,14.43
2023-04-25T07:18:56.344Z,12.20
2023-04-25T07:20:57.732Z,13.13
2023-04-25T07:22:59.122Z,11.50
2023-04-25T07:25:01.043Z,13.88
2023-04-25T07:27:03.398Z,12.63
2023-04-25T07:29:04.842Z,9.40
2023-04-25T07:31:06.344Z,11.63
2023-04-25T07:33:07.854Z,13.98
2023-04-25T07:35:09.518Z,15.00
2023-04-25T07:37:11.374Z,12.20
2023-04-25T07:39:12.850Z,13.25
2023-04-25T07:41:14.302Z,12.77
2023-04-25T07:43:17.617Z,15.07
2023-04-25T07:45:19.016Z,10.25
2023-04-25T07:47:20.600Z,10.07
2023-04-25T07:49:22.060Z,13.75
2023-04-25T07:51:23.594Z,12.48
2023-04-25T07:53:25.027Z,12.70
2023-04-25T07:55:27.193Z,12.82
2023-04-25T07:57:28.707Z,8.65
2023-04-25T07:59:30.503Z,10.13
2023-04-25T08:01:32.060Z,11.02
2023-04-25T08:03:33.668Z,12.30
2023-04-25T08:05:35.699Z,14.70
2023-04-25T08:07:37.196Z,9.63
2023-04-25T08:09:38.638Z,12.48
2023-04-25T08:11:40.568Z,11.35
2023-04-25T08:13:41.940Z,10.70
2023-04-25T08:15:43.429Z,11.07
2023-04-25T08:17:45.070Z,13.10
2023-04-25T08:19:46.590Z,11.52
2023-04-25T08:21:48.025Z,11.20
2023-04-25T08:23:49.404Z,13.32
2023-04-25T08:25:50.801Z,14.20
2023-04-25T08:27:52.234Z,8.38
2023-04-25T08:29:53.671Z,9.50
2023-04-25T08:31:55.401Z,9.38
2023-04-25T08:33:57.024Z,12.27
2023-04-25T08:35:58.600Z,10.57
2023-04-25T08:38:00.280Z,10.10
2023-04-25T08:40:01.709Z,12.15
2023-04-25T08:42:08.693Z,7.88
2023-04-25T08:46:13.835Z,11.27
2023-04-25T08:48:17.105Z,14.07
2023-04-25T08:50:20.275Z,6.43
2023-04-25T08:52:27.273Z,11.10
2023-04-25T08:54:34.379Z,8.20
2023-04-25T08:56:44.673Z,7.75
2023-04-25T08:58:46.965Z,9.65
2023-04-25T09:00:49.449Z,8.02
2023-04-25T09:02:51.366Z,14.18
2023-04-25T09:04:55.953Z,7.82
2023-04-25T09:06:57.932Z,8.40
2023-04-25T09:09:05.736Z,8.73
2023-04-25T09:11:08.473Z,9.25
2023-04-25T09:13:15.990Z,8.23
2023-04-25T09:15:20.835Z,6.32
2023-04-25T09:17:22.704Z,16.58
2023-04-25T09:19:39.852Z,4.88
2023-04-25T09:21:42.726Z,7.07
2023-04-25T09:23:49.361Z,7.25
2023-04-25T09:25:53.289Z,7.38
2023-04-25T09:27:55.228Z,7.68
2023-04-25T09:30:01.532Z,10.65
2023-04-25T09:32:12.645Z,10.57
2023-04-25T09:34:16.641Z,9.93
2023-04-25T09:36:18.030Z,5.75
2023-04-25T09:38:19.521Z,9.05
2023-04-25T09:40:21.173Z,8.15
2023-04-25T09:42:27.659Z,9.52
2023-04-25T09:44:29.162Z,9.10
2023-04-25T09:46:37.446Z,6.82
2023-04-25T09:48:39.227Z,8.13
2023-04-25T09:50:41.284Z,6.70
2023-04-25T09:52:42.854Z,9.45
2023-04-25T09:54:46.079Z,8.48
2023-04-25T09:56:51.944Z,9.20
2023-04-25T09:58:55.860Z,9.43
2023-04-25T10:01:01.786Z,6.93
2023-04-25T10:03:06.507Z,7.50
2023-04-25T10:05:09.396Z,9.63
2023-04-25T10:07:12.049Z,8.25
2023-04-25T10:09:14.591Z,6.55
2023-04-25T10:11:17.442Z,7.05
2023-04-25T10:13:19.658Z,9.10
2023-04-25T10:15:22.788Z,10.88
2023-04-25T10:17:24.543Z,7.57
2023-04-25T10:19:27.815Z,8.45
2023-04-25T10:21:31.496Z,11.93
2023-04-25T10:23:33.280Z,9.75
2023-04-25T10:25:35.548Z,7.65
2023-04-25T10:27:38.084Z,5.85
2023-04-25T10:29:39.559Z,6.70
2023-04-25T10:31:48.262Z,5.72
2023-04-25T10:33:50.388Z,6.68
2023-04-25T10:35:52.039Z,6.40
2023-04-25T10:38:26.199Z,6.82
2023-04-25T10:40:27.838Z,7.25
2023-04-25T10:42:29.842Z,7.20
2023-04-25T10:44:32.204Z,5.43
2023-04-25T10:46:35.057Z,5.35
2023-04-25T10:48:36.596Z,2.95
2023-04-25T10:50:40.202Z,2.90
2023-04-25T10:52:41.930Z,2.78
2023-04-25T10:54:54.808Z,4.28
2023-04-25T10:57:01.284Z,5.25
2023-04-25T10:59:11.019Z,4.05
2023-04-25T11:01:20.279Z,3.75
2023-04-25T11:03:23.146Z,4.88
2023-04-25T11:05:51.153Z,5.20
2023-04-25T11:08:07.572Z,4.88
2023-04-25T11:10:09.899Z,3.35
2023-04-25T11:14:34.169Z,6.47
2023-04-25T11:14:38.115Z,5.50
2023-04-25T11:16:37.357Z,4.13
2023-04-25T11:18:39.810Z,6.32
2023-04-25T11:20:44.182Z,3.15
2023-04-25T11:22:47.592Z,4.43
2023-04-25T11:24:49.350Z,5.38
2023-04-25T11:26:51.032Z,5.53
2023-04-25T11:28:52.465Z,6.47
2023-04-25T11:30:53.953Z,6.05
2023-04-25T11:32:55.803Z,4.10
2023-04-25T11:34:58.601Z,4.07
2023-04-25T11:37:01.523Z,4.28
2023-04-25T11:39:03.019Z,5.95
2023-04-25T11:41:04.582Z,5.43
2023-04-25T11:43:06.030Z,4.25
2023-04-25T11:45:08.016Z,3.65
2023-04-25T11:47:09.477Z,2.90
2023-04-25T11:49:11.137Z,5.90
2023-04-25T11:51:12.897Z,3.00
2023-04-25T11:53:14.569Z,5.43
2023-04-25T11:55:17.888Z,6.18
2023-04-25T11:57:22.097Z,3.88
2023-04-25T11:59:27.500Z,7.45
2023-04-25T12:01:31.674Z,5.22
2023-04-25T12:03:34.253Z,4.72
2023-04-25T12:05:37.050Z,3.95
2023-04-25T12:07:39.198Z,5.10
2023-04-25T12:09:41.464Z,5.07
2023-04-25T12:11:44.653Z,3.97
2023-04-25T12:13:46.073Z,6.13
2023-04-25T12:15:47.712Z,4.65
2023-04-25T12:17:52.410Z,3.20
2023-04-25T12:19:53.851Z,3.03
2023-04-25T12:21:58.619Z,5.35
2023-04-25T12:24:28.591Z,3.05
2023-04-25T12:27:06.958Z,1.98
2023-04-25T12:29:47.859Z,2.35
2023-04-25T12:31:51.235Z,3.85
2023-04-25T12:33:52.753Z,2.80
2023-04-25T12:35:55.111Z,2.72
2023-04-25T12:37:56.745Z,3.70
2023-04-25T12:39:58.179Z,2.67
2023-04-25T12:42:00.655Z,3.47
2023-04-25T12:44:02.073Z,3.38
2023-04-25T12:46:04.164Z,4.25
2023-04-25T12:48:05.744Z,4.20
2023-04-25T12:50:07.738Z,5.10
2023-04-25T12:52:09.176Z,3.58
2023-04-25T12:54:10.968Z,1.55
2023-04-25T12:56:12.446Z,2.05
2023-04-25T12:58:18.417Z,2.78
2023-04-25T13:00:20.946Z,5.10
2023-04-25T13:02:22.928Z,4.20
2023-04-25T13:04:24.887Z,2.97
2023-04-25T13:06:27.178Z,4.03
2023-04-25T13:08:28.621Z,4.93
2023-04-25T13:10:30.486Z,2.53
2023-04-25T13:12:32.023Z,3.00
2023-04-25T13:14:33.447Z,3.80
2023-04-25T13:16:34.874Z,3.60
2023-04-25T13:18:36.349Z,4.57
2023-04-25T13:20:37.835Z,2.67
2023-04-25T13:22:40.293Z,3.25
2023-04-25T13:24:41.857Z,3.58
2023-04-25T13:26:43.393Z,1.60
2023-04-25T13:28:45.129Z,5.63
2023-04-25T13:30:46.770Z,5.18
2023-04-25T13:32:48.395Z,2.67
2023-04-25T13:34:49.805Z,2.20
2023-04-25T13:36:51.196Z,4.60
2023-04-25T13:38:52.610Z,2.13
2023-04-25T13:40:54.363Z,2.67
2023-04-25T13:42:57.055Z,3.40
2023-04-25T13:44:58.526Z,5.70
2023-04-25T13:47:01.658Z,3.72
2023-04-25T13:49:12.298Z,2.55
2023-04-25T13:51:14.547Z,4.35
2023-04-25T13:53:16.004Z,3.45
2023-04-25T13:55:17.507Z,2.85
2023-04-25T13:57:19.362Z,3.35
2023-04-25T13:59:20.783Z,4.40
2023-04-25T14:01:22.494Z,4.20
2023-04-25T14:03:24.043Z,4.63
2023-04-25T14:05:25.723Z,2.45
2023-04-25T14:07:27.229Z,2.45
2023-04-25T14:09:29.147Z,7.20
2023-04-25T14:11:30.637Z,4.55
2023-04-25T14:13:34.874Z,9.98
2023-04-25T14:15:36.361Z,5.45
2023-04-25T14:17:38.435Z,4.85
2023-04-25T14:19:44.153Z,3.28
2023-04-25T14:21:45.661Z,5.60
2023-04-25T14:23:49.530Z,4.22
2023-04-25T14:25:51.284Z,4.88
2023-04-25T14:27:52.799Z,4.93
2023-04-25T14:29:54.320Z,4.03
2023-04-25T14:31:57.383Z,3.58
2023-04-25T14:33:59.788Z,5.50
2023-04-25T14:36:01.385Z,3.35
2023-04-25T14:38:02.864Z,2.10
2023-04-25T14:40:05.574Z,5.35
2023-04-25T14:42:06.992Z,3.45
2023-04-25T14:44:09.262Z,4.40
2023-04-25T14:46:11.860Z,3.25
2023-04-25T14:48:13.599Z,4.40
2023-04-25T14:50:15.274Z,3.92
2023-04-25T14:52:16.804Z,2.58
2023-04-25T14:54:18.297Z,3.53
2023-04-25T14:56:19.965Z,5.68
2023-04-25T14:58:21.516Z,3.97
2023-04-25T15:00:23.496Z,3.17
2023-04-25T15:02:25.499Z,3.47
2023-04-25T15:04:27.439Z,3.03
2023-04-25T15:06:30.412Z,4.07
2023-04-25T15:08:32.199Z,6.03
2023-04-25T15:10:34.080Z,3.17
2023-04-25T15:12:35.524Z,3.58
2023-04-25T15:14:37.085Z,4.00
2023-04-25T15:16:38.522Z,3.28
2023-04-25T15:18:39.916Z,2.92
2023-04-25T15:20:41.419Z,4.50
2023-04-25T15:22:44.694Z,3.97
2023-04-25T15:24:46.159Z,4.15
2023-04-25T15:26:47.605Z,3.58
2023-04-25T15:28:49.465Z,3.38
2023-04-25T15:30:51.392Z,3.83
2023-04-25T15:32:52.814Z,5.70
2023-04-25T15:34:54.190Z,7.25
2023-04-25T15:36:55.632Z,4.97
2023-04-25T15:38:57.591Z,6.45
2023-04-25T15:40:59.041Z,4.03
2023-04-25T15:43:00.563Z,4.07
2023-04-25T15:45:02.691Z,4.32
2023-04-25T15:47:04.141Z,4.20
2023-04-25T15:49:05.571Z,4.80
2023-04-25T15:51:07.327Z,4.45
2023-04-25T15:53:08.782Z,5.90
2023-04-25T15:55:11.561Z,3.97
2023-04-25T15:57:13.217Z,3.40
2023-04-25T15:59:14.646Z,2.03
2023-04-25T16:01:16.518Z,5.95
2023-04-25T16:03:18.268Z,5.68
2023-04-25T16:05:20.397Z,3.28
2023-04-25T16:07:22.028Z,2.17
2023-04-25T16:09:23.433Z,4.78
2023-04-25T16:11:24.960Z,2.92
2023-04-25T16:13:27.458Z,2.88
2023-04-25T16:15:28.827Z,4.85
2023-04-25T16:17:30.398Z,4.40
2023-04-25T16:19:32.505Z,2.95
2023-04-25T16:21:33.850Z,4.03
2023-04-25T16:23:35.284Z,3.72
2023-04-25T16:25:36.638Z,4.78
2023-04-25T16:27:39.319Z,3.53
2023-04-25T16:29:41.346Z,5.53
2023-04-25T16:31:43.458Z,3.47
2023-04-25T16:33:44.950Z,2.08
2023-04-25T16:35:46.392Z,4.38
2023-04-25T16:37:48.309Z,4.68
2023-04-25T16:39:49.772Z,3.00
2023-04-25T16:41:51.945Z,4.90
2023-04-25T16:43:53.995Z,2.92
2023-04-25T16:45:55.908Z,3.05
2023-04-25T16:47:57.386Z,3.58
2023-04-25T16:50:00.932Z,3.42
2023-04-25T16:52:02.508Z,2.55
2023-04-25T16:54:04.064Z,3.40
2023-04-25T16:56:07.532Z,4.78
2023-04-25T16:58:11.881Z,3.03
2023-04-25T17:00:14.122Z,4.68
2023-04-25T17:02:15.868Z,1.77
2023-04-25T17:04:17.536Z,3.03
2023-04-25T17:06:19.218Z,4.55
2023-04-25T17:08:20.827Z,3.47
2023-04-25T17:10:22.915Z,3.63
2023-04-25T17:12:24.343Z,5.18
2023-04-25T17:14:26.881Z,4.50
2023-04-25T17:16:38.538Z,3.70
2023-04-25T17:18:40.012Z,4.35
2023-04-25T17:20:41.597Z,5.53
2023-04-25T17:22:43.537Z,6.50
2023-04-25T17:24:44.973Z,3.75
2023-04-25T17:26:48.248Z,5.75
2023-04-25T17:28:50.593Z,4.32
2023-04-25T17:30:52.222Z,4.05
2023-04-25T17:32:53.973Z,5.00
2023-04-25T17:34:56.742Z,4.10
2023-04-25T17:36:58.150Z,7.22
2023-04-25T17:38:59.564Z,5.47
2023-04-25T17:41:01.649Z,3.60
2023-04-25T17:43:03.134Z,3.55
2023-04-25T17:45:05.292Z,3.97
2023-04-25T17:47:08.626Z,3.97
2023-04-25T17:49:10.261Z,4.50
2023-04-25T17:51:11.729Z,4.22
2023-04-25T17:53:13.129Z,5.85
2023-04-25T17:55:14.567Z,4.35
2023-04-25T17:57:16.338Z,7.10
2023-04-25T17:59:19.231Z,2.47
2023-04-25T18:01:20.717Z,3.75
2023-04-25T18:03:22.482Z,3.03
2023-04-25T18:05:24.961Z,4.03
2023-04-25T18:07:26.390Z,5.97
2023-04-25T18:09:27.836Z,2.80
2023-04-25T18:11:29.975Z,4.70
2023-04-25T18:13:31.394Z,5.03
2023-04-25T18:15:32.801Z,4.50
2023-04-25T18:17:39.636Z,5.95
2023-04-25T18:21:45.858Z,3.33
2023-04-25T18:23:47.520Z,6.85
2023-04-25T18:25:51.868Z,3.17
2023-04-25T18:27:53.437Z,3.58
2023-04-25T18:29:54.824Z,3.05
2023-04-25T18:31:56.344Z,2.83
2023-04-25T18:33:58.461Z,2.95
2023-04-25T18:36:00.018Z,2.90
2023-04-25T18:38:01.535Z,3.45
2023-04-25T18:40:06.595Z,15.18
2023-04-25T18:42:08.453Z,8.25
2023-04-25T18:44:09.819Z,5.90
2023-04-25T18:46:11.669Z,5.07
2023-04-25T18:48:13.177Z,5.20
2023-04-25T18:50:15.479Z,3.17
2023-04-25T18:52:17.687Z,3.45
2023-04-25T18:54:19.055Z,3.90
2023-04-25T18:56:22.599Z,7.18
2023-04-25T18:58:24.057Z,2.70
2023-04-25T19:00:25.500Z,8.63
2023-04-25T19:02:27.011Z,7.18
2023-04-25T19:04:29.729Z,6.65
2023-04-25T19:06:31.272Z,5.68
2023-04-25T19:08:32.690Z,3.33
2023-04-25T19:10:34.328Z,4.28
2023-04-25T19:12:35.720Z,4.45
2023-04-25T19:14:37.126Z,5.97
2023-04-25T19:19:05.813Z,5.45
2023-04-25T19:21:08.493Z,7.28
2023-04-25T19:23:11.017Z,11.13
2023-04-25T19:25:12.512Z,5.28
2023-04-25T19:29:44.205Z,3.90
2023-04-25T19:31:45.699Z,6.40
2023-04-25T19:33:47.242Z,7.32
2023-04-25T19:35:48.631Z,3.85
2023-04-25T19:37:50.463Z,6.47
2023-04-25T19:39:51.851Z,4.47
2023-04-25T19:41:54.354Z,6.05
2023-04-25T19:43:55.801Z,5.35
2023-04-25T19:45:57.604Z,8.65
2023-04-25T19:47:59.215Z,6.55
2023-04-25T19:50:01.189Z,12.43
2023-04-25T19:52:03.673Z,8.25
2023-04-25T19:54:05.445Z,6.13
2023-04-25T19:56:09.409Z,7.90
2023-04-25T19:58:10.787Z,6.05
2023-04-25T20:00:14.555Z,7.18
2023-04-25T20:02:18.256Z,4.18
2023-04-25T20:04:19.754Z,3.95
2023-04-25T20:06:21.566Z,2.15
2023-04-25T20:08:24.733Z,5.70
2023-04-25T20:10:27.321Z,3.20
2023-04-25T20:12:29.984Z,9.52
2023-04-25T20:14:33.021Z,5.13
2023-04-25T20:16:34.745Z,4.38
2023-04-25T20:18:36.276Z,3.13
2023-04-25T20:20:37.767Z,4.88
2023-04-25T20:22:40.585Z,6.03
2023-04-25T20:24:42.293Z,7.28
2023-04-25T20:26:45.079Z,4.75
2023-04-25T20:28:46.797Z,3.88
2023-04-25T20:30:48.429Z,5.15
2023-04-25T20:32:50.043Z,4.57
2023-04-25T20:34:51.607Z,3.10
2023-04-25T20:36:53.072Z,3.13
2023-04-25T20:38:54.823Z,3.95
2023-04-25T20:40:56.510Z,3.33
2023-04-25T20:42:58.174Z,4.32
2023-04-25T20:44:59.633Z,6.10
2023-04-25T20:47:01.018Z,5.82
2023-04-25T20:49:05.032Z,5.47
2023-04-25T20:51:07.170Z,7.68
2023-04-25T20:53:08.881Z,5.18
2023-04-25T20:55:11.704Z,5.68
2023-04-25T20:57:13.119Z,3.17
2023-04-25T20:59:15.310Z,5.38
2023-04-25T21:01:16.804Z,3.13
2023-04-25T21:03:18.513Z,5.55
2023-04-25T21:05:22.197Z,4.35
2023-04-25T21:07:23.644Z,7.32
2023-04-25T21:09:25.343Z,4.20
2023-04-25T21:11:27.444Z,8.55
2023-04-25T21:13:29.069Z,5.22
2023-04-25T21:15:30.767Z,4.88
2023-04-25T21:17:32.170Z,7.18
2023-04-25T21:19:33.956Z,7.20
2023-04-25T21:21:35.624Z,4.43
2023-04-25T21:23:37.064Z,7.40
2023-04-25T21:25:38.621Z,5.47
2023-04-25T21:27:39.999Z,4.55
2023-04-25T21:29:41.418Z,5.72
2023-04-25T21:31:43.586Z,3.85
2023-04-25T21:33:45.064Z,7.03
2023-04-25T21:35:46.459Z,5.18
2023-04-25T21:37:48.363Z,4.57
2023-04-25T21:39:49.985Z,4.57
2023-04-25T21:41:51.368Z,5.22
2023-04-25T21:43:59.186Z,6.15
2023-04-25T21:48:04.889Z,4.45
2023-04-25T21:50:07.355Z,6.75
2023-04-25T21:52:09.675Z,6.10
2023-04-25T21:54:11.054Z,2.90
2023-04-25T21:56:12.562Z,5.45
2023-04-25T21:58:14.066Z,4.18
2023-04-25T22:00:25.032Z,5.78
2023-04-25T22:02:27.799Z,3.17
2023-04-25T22:04:29.767Z,5.60
2023-04-25T22:06:32.154Z,4.93
2023-04-25T22:08:33.594Z,8.43
2023-04-25T22:10:35.394Z,5.57
2023-04-25T22:12:37.375Z,5.80
2023-04-25T22:14:38.908Z,9.90
2023-04-25T22:16:40.374Z,6.55
2023-04-25T22:18:42.234Z,4.60
2023-04-25T22:20:44.278Z,5.68
2023-04-25T22:22:46.326Z,4.30
2023-04-25T22:24:49.654Z,7.07
2023-04-25T22:26:51.173Z,2.78
2023-04-25T22:28:52.779Z,6.32
2023-04-25T22:30:54.870Z,5.32
2023-04-25T22:32:56.365Z,3.75
2023-04-25T22:34:57.796Z,7.18
2023-04-25T22:36:59.538Z,3.75
2023-04-25T22:39:00.956Z,6.32
2023-04-25T22:41:02.386Z,5.20
2023-04-25T22:43:03.775Z,6.50
2023-04-25T22:45:08.082Z,8.18
2023-04-25T22:47:09.530Z,7.20
2023-04-25T22:49:10.943Z,3.45
2023-04-25T22:51:12.613Z,6.80
2023-04-25T22:53:14.137Z,5.50
2023-04-25T22:55:15.599Z,2.78
2023-04-25T22:57:17.054Z,4.45
2023-04-25T22:59:20.691Z,5.82
2023-04-25T23:01:22.133Z,6.43
2023-04-25T23:03:23.686Z,3.83
2023-04-25T23:05:25.155Z,7.35
2023-04-25T23:07:26.515Z,5.82
2023-04-25T23:09:27.871Z,5.75
2023-04-25T23:11:29.340Z,6.18
2023-04-25T23:13:31.565Z,6.13
2023-04-25T23:15:33.264Z,4.72
2023-04-25T23:17:35.205Z,6.97
2023-04-25T23:19:36.663Z,6.80
2023-04-25T23:21:38.146Z,6.07
2023-04-25T23:23:39.900Z,5.90
2023-04-25T23:25:41.337Z,7.72
2023-04-25T23:27:43.622Z,6.95
2023-04-25T23:29:53.099Z,4.38
2023-04-25T23:31:54.520Z,5.75
2023-04-25T23:33:56.016Z,5.38
2023-04-25T23:35:57.446Z,4.70
2023-04-25T23:37:58.858Z,5.63
2023-04-25T23:40:00.340Z,8.35
2023-04-25T23:42:01.732Z,5.07
2023-04-25T23:44:03.534Z,6.68
2023-04-25T23:46:05.121Z,5.85
2023-04-25T23:48:06.719Z,6.45
2023-04-25T23:50:08.635Z,5.30
2023-04-25T23:52:10.064Z,6.10
2023-04-25T23:54:12.036Z,4.35
2023-04-25T23:56:13.433Z,9.02
2023-04-25T23:58:14.828Z,8.65
